Time;durP1;ratioP1;P1;durP2;ratioP2;P2;SDS_P1;SDS_P2;PMS_P1;PMS_P2;Temp;Humidity;BMP_temperature;BMP_pressure;BME280_temperature;BME280_humidity;BME280_pressure;Samples;Min_cycle;Max_cycle;Signal;HPM_P1;HPM_P2
2022/02/10 00:16:37;;;;;;;;;66.25;53.50;;;;;;;;5029034;28;11618;-74
2022/02/10 00:19:30;;;;;;;;;61.50;49.75;;;;;;;;5050119;28;11602;-74
2022/02/10 00:22:02;;;;;;;;;64.00;52.00;;;;;;;;5054040;28;11560;-75
2022/02/10 00:25:03;;;;;;;;;61.00;49.75;;;;;;;;5045854;28;11607;-74
2022/02/10 00:35:58;;;;;;;;;63.75;52.25;;;;;;;;4995422;28;11680;-74
2022/02/10 00:38:29;;;;;;;;;61.00;47.00;;;;;;;;5037290;28;11580;-74
2022/02/10 00:40:57;;;;;;;;;62.50;51.75;;;;;;;;5049848;28;11729;-74
2022/02/10 00:43:24;;;;;;;;;66.25;54.25;;;;;;;;5056300;28;11606;-75
2022/02/10 00:45:51;;;;;;;;;53.75;45.25;;;;;;;;5045946;28;11630;-74
2022/02/10 00:48:20;;;;;;;;;60.00;49.00;;;;;;;;5044593;28;11598;-75
2022/02/10 00:50:50;;;;;;;;;57.75;48.50;;;;;;;;5048448;28;11624;-75
2022/02/10 00:53:21;;;;;;;;;54.50;46.75;;;;;;;;5049578;28;11801;-74
2022/02/10 00:55:48;;;;;;;;;55.50;46.75;;;;;;;;5053139;28;11639;-74
2022/02/10 00:58:22;;;;;;;;;66.00;51.50;;;;;;;;5049331;28;11501;-74
2022/02/10 01:31:34;;;;;;;;;68.00;55.25;;;;;;;;5015418;28;11678;-74
2022/02/10 01:34:02;;;;;;;;;68.00;53.75;;;;;;;;5030412;28;11677;-74
2022/02/10 01:36:30;;;;;;;;;61.50;51.75;;;;;;;;5037703;28;11567;-74
2022/02/10 01:38:58;;;;;;;;;63.25;48.25;;;;;;;;5044001;28;11611;-74
2022/02/10 01:42:01;;;;;;;;;61.50;48.00;;;;;;;;5043065;28;11724;-74
2022/02/10 02:03:17;;;;;;;;;59.75;47.50;;;;;;;;5038317;28;11587;-74
2022/02/10 02:04:11;;;;;;;;;59.25;50.25;;;;;;;;5036071;28;11572;-74
2022/02/10 02:06:44;;;;;;;;;51.50;44.00;;;;;;;;5038034;28;11688;-75
2022/02/10 02:09:15;;;;;;;;;46.50;40.75;;;;;;;;5019004;28;11685;-75
2022/02/10 02:11:43;;;;;;;;;58.25;47.00;;;;;;;;5029457;28;11570;-74
2022/02/10 02:14:14;;;;;;;;;53.00;47.50;;;;;;;;5034707;28;11569;-74
2022/02/10 02:16:45;;;;;;;;;58.50;48.00;;;;;;;;5040334;28;12323;-75
2022/02/10 02:19:12;;;;;;;;;58.75;46.50;;;;;;;;5031057;28;11574;-74
2022/02/10 02:21:41;;;;;;;;;60.25;48.00;;;;;;;;5038186;28;11593;-74
2022/02/10 02:24:13;;;;;;;;;48.00;41.50;;;;;;;;5008331;28;11596;-74
2022/02/10 02:26:41;;;;;;;;;47.25;42.00;;;;;;;;5030916;28;11550;-74
2022/02/10 02:29:11;;;;;;;;;56.50;44.00;;;;;;;;5035231;28;12334;-74
2022/02/10 02:31:43;;;;;;;;;57.25;47.75;;;;;;;;5038148;28;12150;-74
2022/02/10 03:04:49;;;;;;;;;39.75;35.75;;;;;;;;5041477;28;11557;-74
2022/02/10 03:07:28;;;;;;;;;36.25;33.50;;;;;;;;5031575;28;11644;-73
2022/02/10 03:10:08;;;;;;;;;38.75;33.50;;;;;;;;5029726;28;11536;-74
2022/02/10 03:12:37;;;;;;;;;34.75;34.75;;;;;;;;5034182;28;11544;-74
2022/02/10 03:15:11;;;;;;;;;45.25;34.25;;;;;;;;5035057;28;11591;-74
2022/02/10 03:17:46;;;;;;;;;32.25;30.25;;;;;;;;5014568;28;11537;-74
2022/02/10 03:20:28;;;;;;;;;28.75;28.50;;;;;;;;5039821;28;12430;-74
2022/02/10 04:10:14;;;;;;;;;37.00;31.25;;;;;;;;5041200;28;11579;-74
2022/02/10 04:15:33;;;;;;;;;38.50;35.00;;;;;;;;5036298;28;11588;-74
2022/02/10 04:20:56;;;;;;;;;31.00;28.50;;;;;;;;5033410;28;11568;-74
2022/02/10 04:23:37;;;;;;;;;33.50;33.50;;;;;;;;5035155;28;11577;-74
2022/02/10 04:26:17;;;;;;;;;46.50;35.75;;;;;;;;5036981;28;11715;-74
2022/02/10 04:29:03;;;;;;;;;41.50;36.00;;;;;;;;5031386;28;11622;-74
2022/02/10 04:43:10;;;;;;;;;36.00;33.00;;;;;;;;5030824;28;11636;-74
2022/02/10 04:56:54;;;;;;;;;48.75;41.25;;;;;;;;5027442;28;11624;-75
2022/02/10 04:59:37;;;;;;;;;37.00;35.50;;;;;;;;5032969;28;11623;-75
2022/02/10 05:02:35;;;;;;;;;45.75;40.00;;;;;;;;5029757;28;11552;-75
2022/02/10 05:08:22;;;;;;;;;50.25;39.50;;;;;;;;5042848;28;11654;-74
2022/02/10 05:16:36;;;;;;;;;41.75;36.00;;;;;;;;5034251;28;11669;-74
2022/02/10 05:22:19;;;;;;;;;51.00;42.00;;;;;;;;5037934;28;11616;-74
2022/02/10 05:33:14;;;;;;;;;50.50;43.25;;;;;;;;5035280;28;11569;-75
2022/02/10 05:35:45;;;;;;;;;53.00;44.75;;;;;;;;5043862;28;11714;-74
2022/02/10 05:38:16;;;;;;;;;52.25;39.25;;;;;;;;5042299;28;11727;-74
2022/02/10 05:43:43;;;;;;;;;39.00;34.75;;;;;;;;5019734;28;11643;-75
2022/02/10 05:46:19;;;;;;;;;50.50;43.75;;;;;;;;5039553;28;11628;-74
2022/02/10 05:49:11;;;;;;;;;41.75;39.75;;;;;;;;5039251;28;11603;-75
2022/02/10 05:52:02;;;;;;;;;39.75;37.00;;;;;;;;5030474;28;11739;-75
2022/02/10 05:54:41;;;;;;;;;53.50;44.00;;;;;;;;5025117;28;12364;-75
2022/02/10 05:57:26;;;;;;;;;48.50;44.50;;;;;;;;5040446;28;11606;-75
2022/02/10 06:00:26;;;;;;;;;54.50;43.00;;;;;;;;5036746;28;11654;-75
2022/02/10 06:52:31;;;;;;;;;43.25;37.00;;;;;;;;5094903;28;11583;-77
2022/02/10 06:55:08;;;;;;;;;47.25;42.25;;;;;;;;5100059;28;11597;-78
2022/02/10 06:58:07;;;;;;;;;43.00;40.75;;;;;;;;5098387;28;11552;-78
2022/02/10 07:09:15;;;;;;;;;40.75;38.25;;;;;;;;5094331;28;11602;-77
2022/02/10 07:14:54;;;;;;;;;44.75;39.50;;;;;;;;5068449;28;11599;-78
2022/02/10 07:43:16;;;;;;;;;47.75;42.00;;;;;;;;5099273;28;11630;-78
2022/02/10 07:51:17;;;;;;;;;34.00;31.00;;;;;;;;5087523;28;12591;-76
2022/02/10 07:53:52;;;;;;;;;36.50;34.50;;;;;;;;5085582;28;11550;-76
2022/02/10 07:59:36;;;;;;;;;46.00;36.25;;;;;;;;5070966;28;11675;-76
2022/02/10 08:57:37;;;;;;;;;33.75;31.25;;;;;;;;5097807;28;11578;-77
2022/02/10 09:05:56;;;;;;;;;38.75;34.00;;;;;;;;5089782;28;11688;-80
2022/02/10 09:58:41;;;;;;;;;30.50;26.25;;;;;;;;5092019;28;11640;-79
2022/02/10 10:01:22;;;;;;;;;39.50;35.25;;;;;;;;5102865;28;11432;-79
2022/02/10 10:04:05;;;;;;;;;28.00;26.25;;;;;;;;5102281;28;11480;-78
2022/02/10 10:06:57;;;;;;;;;39.75;35.75;;;;;;;;5098221;28;12243;-79
2022/02/10 10:15:22;;;;;;;;;30.00;25.25;;;;;;;;5094596;28;11549;-76
2022/02/10 10:21:07;;;;;;;;;26.25;25.50;;;;;;;;5099785;28;12302;-77
2022/02/10 10:23:51;;;;;;;;;31.00;27.00;;;;;;;;5100637;28;11487;-77
2022/02/10 10:51:36;;;;;;;;;30.00;21.00;;;;;;;;5098147;28;11102;-80
2022/02/10 10:54:12;;;;;;;;;28.50;24.75;;;;;;;;5080940;28;11788;-77
2022/02/10 10:56:44;;;;;;;;;24.50;22.00;;;;;;;;5101156;28;10989;-78
2022/02/10 11:39:26;;;;;;;;;27.00;23.50;;;;;;;;5092870;28;10863;-80
2022/02/10 13:48:18;;;;;;;;;11.00;10.50;;;;;;;;5103680;28;10120;-76
2022/02/10 14:13:08;;;;;;;;;3.25;3.25;;;;;;;;5102605;28;9851;-76
2022/02/10 14:15:54;;;;;;;;;10.25;8.00;;;;;;;;5102819;28;9850;-76
2022/02/10 14:18:26;;;;;;;;;7.75;7.75;;;;;;;;5102648;28;9939;-76
2022/02/10 14:21:08;;;;;;;;;10.75;7.25;;;;;;;;5102062;28;9970;-75
2022/02/10 14:29:03;;;;;;;;;9.50;7.25;;;;;;;;5096642;28;9954;-76
2022/02/10 14:31:32;;;;;;;;;10.75;9.25;;;;;;;;5100180;27;9971;-79
2022/02/10 14:34:01;;;;;;;;;11.00;8.75;;;;;;;;5100066;28;9944;-76
2022/02/10 14:36:34;;;;;;;;;27.50;25.00;;;;;;;;5101332;28;10679;-76
2022/02/10 15:21:21;;;;;;;;;17.00;16.00;;;;;;;;5103743;28;11231;-76
2022/02/10 16:10:46;;;;;;;;;14.50;13.50;;;;;;;;5078324;28;10888;-75
2022/02/10 16:11:00;;;;;;;;;1.00;1.00;;;;;;;;5030634;28;10741;-76
2022/02/10 16:18:58;;;;;;;;;3.00;3.00;;;;;;;;5094846;28;11024;-75
2022/02/10 16:21:35;;;;;;;;;6.25;5.50;;;;;;;;5087310;28;10630;-76
2022/02/10 16:24:13;;;;;;;;;1.00;0.00;;;;;;;;5105725;28;12402;-77
2022/02/10 16:26:53;;;;;;;;;3.50;3.50;;;;;;;;5103302;28;11438;-76
2022/02/10 16:29:21;;;;;;;;;2.00;2.00;;;;;;;;5105575;28;10619;-76
2022/02/10 16:31:48;;;;;;;;;0.00;0.00;;;;;;;;5083990;28;10631;-76
2022/02/10 16:34:16;;;;;;;;;2.00;0.50;;;;;;;;5099301;28;10532;-75
2022/02/10 16:36:43;;;;;;;;;0.50;0.50;;;;;;;;5104612;28;10650;-75
2022/02/10 16:39:11;;;;;;;;;4.50;4.50;;;;;;;;5103169;28;10630;-75
2022/02/10 16:41:38;;;;;;;;;2.00;1.00;;;;;;;;5105147;28;10956;-75
2022/02/10 16:44:07;;;;;;;;;0.00;0.00;;;;;;;;5104057;28;10900;-77
2022/02/10 16:46:35;;;;;;;;;0.00;0.00;;;;;;;;5104646;28;10663;-75
2022/02/10 16:49:02;;;;;;;;;0.75;0.00;;;;;;;;5104123;28;10789;-75
2022/02/10 16:51:38;;;;;;;;;1.00;1.00;;;;;;;;5101040;28;10822;-75
2022/02/10 16:54:13;;;;;;;;;0.75;0.75;;;;;;;;5111573;27;10841;-75
2022/02/10 16:56:56;;;;;;;;;1.00;1.00;;;;;;;;5111695;28;10757;-75
2022/02/10 16:59:34;;;;;;;;;1.50;1.50;;;;;;;;5109549;28;11638;-75
2022/02/10 17:02:17;;;;;;;;;2.00;2.00;;;;;;;;5104351;28;10887;-75
2022/02/10 17:05:24;;;;;;;;;2.00;2.00;;;;;;;;5102928;28;11121;-74
2022/02/10 17:19:09;;;;;;;;;5.00;5.00;;;;;;;;5056678;28;11959;-75
2022/02/10 17:27:19;;;;;;;;;3.50;2.50;;;;;;;;5100011;28;11839;-80
2022/02/10 17:30:22;;;;;;;;;1.75;1.75;;;;;;;;5101770;28;11449;-78
2022/02/10 17:33:01;;;;;;;;;1.00;1.00;;;;;;;;5100284;28;11440;-77
2022/02/10 17:35:46;;;;;;;;;6.00;6.00;;;;;;;;5101596;28;12196;-75
2022/02/10 17:47:09;;;;;;;;;12.50;11.50;;;;;;;;5089925;28;11472;-75
2022/02/10 17:52:22;;;;;;;;;0.00;0.00;;;;;;;;5105706;27;11404;-75
2022/02/10 17:54:50;;;;;;;;;0.00;0.00;;;;;;;;5103412;28;11531;-75
2022/02/10 17:57:17;;;;;;;;;0.00;0.00;;;;;;;;5082218;28;11280;-75
2022/02/10 17:59:45;;;;;;;;;2.00;0.00;;;;;;;;5101290;28;11414;-74
2022/02/10 18:02:13;;;;;;;;;4.00;1.75;;;;;;;;5100476;27;11345;-75
2022/02/10 18:04:41;;;;;;;;;0.00;0.00;;;;;;;;5103789;28;11402;-75
2022/02/10 18:07:10;;;;;;;;;0.00;0.00;;;;;;;;5102665;28;11415;-75
2022/02/10 18:15:37;;;;;;;;;1.75;1.75;;;;;;;;5080542;28;11421;-77
2022/02/10 18:18:12;;;;;;;;;1.00;1.00;;;;;;;;5099428;28;11871;-77
2022/02/10 18:20:48;;;;;;;;;0.00;0.00;;;;;;;;5100795;28;11393;-75
2022/02/10 18:23:19;;;;;;;;;0.00;0.00;;;;;;;;5104196;27;11403;-78
2022/02/10 18:25:57;;;;;;;;;0.00;0.00;;;;;;;;5103261;28;11419;-78
2022/02/10 18:28:32;;;;;;;;;0.00;0.00;;;;;;;;5102766;27;11442;-77
2022/02/10 19:07:18;;;;;;;;;0.00;0.00;;;;;;;;5094545;27;11397;-76
2022/02/10 19:09:50;;;;;;;;;4.00;4.00;;;;;;;;5100043;28;12202;-76
2022/02/10 19:12:20;;;;;;;;;1.00;1.00;;;;;;;;5099492;28;11430;-75
2022/02/10 19:14:53;;;;;;;;;1.00;1.00;;;;;;;;5101281;28;12233;-76
2022/02/10 19:17:21;;;;;;;;;0.00;0.00;;;;;;;;5101855;28;11400;-76
2022/02/10 19:19:49;;;;;;;;;0.00;0.00;;;;;;;;5065963;28;11382;-76
2022/02/10 19:22:16;;;;;;;;;0.00;0.00;;;;;;;;5057110;28;11420;-75
2022/02/10 19:24:43;;;;;;;;;0.75;0.75;;;;;;;;5057541;28;11441;-77
2022/02/10 19:27:13;;;;;;;;;0.00;0.00;;;;;;;;5064279;28;11440;-78
2022/02/10 19:29:41;;;;;;;;;1.25;0.00;;;;;;;;5060717;28;11548;-76
2022/02/10 19:32:09;;;;;;;;;0.00;0.00;;;;;;;;5060892;28;12160;-76
2022/02/10 19:34:41;;;;;;;;;4.00;1.50;;;;;;;;5063923;28;11421;-78
2022/02/10 19:37:09;;;;;;;;;0.00;0.00;;;;;;;;5058610;28;11442;-79
2022/02/10 19:39:40;;;;;;;;;1.50;1.50;;;;;;;;5062487;28;11533;-76
2022/02/10 19:42:08;;;;;;;;;0.00;0.00;;;;;;;;5059284;28;12177;-78
2022/02/10 19:44:37;;;;;;;;;3.75;1.50;;;;;;;;5061146;28;11553;-77
2022/02/10 19:47:05;;;;;;;;;0.00;0.00;;;;;;;;5060508;28;11462;-77
2022/02/10 19:49:32;;;;;;;;;0.00;0.00;;;;;;;;5064762;28;11687;-77
2022/02/10 19:51:59;;;;;;;;;0.00;0.00;;;;;;;;5067083;28;11524;-76
2022/02/10 19:54:33;;;;;;;;;0.00;0.00;;;;;;;;5064380;28;11487;-78
2022/02/10 19:57:01;;;;;;;;;1.25;0.00;;;;;;;;5064804;28;12165;-77
2022/02/10 19:59:30;;;;;;;;;0.00;0.00;;;;;;;;5063712;28;11532;-77
2022/02/10 20:02:00;;;;;;;;;1.00;0.00;;;;;;;;5063716;28;11448;-77
2022/02/10 20:04:28;;;;;;;;;0.00;0.00;;;;;;;;5061961;28;12338;-77
2022/02/10 20:06:55;;;;;;;;;0.00;0.00;;;;;;;;5060495;28;11470;-78
2022/02/10 20:09:24;;;;;;;;;0.00;0.00;;;;;;;;5044869;28;11407;-77
2022/02/10 20:11:52;;;;;;;;;0.50;0.50;;;;;;;;5061446;28;11500;-77
2022/02/10 20:14:21;;;;;;;;;0.00;0.00;;;;;;;;5065072;28;11459;-77
2022/02/10 20:16:48;;;;;;;;;0.00;0.00;;;;;;;;5063108;28;11552;-77
2022/02/10 20:19:17;;;;;;;;;0.00;0.00;;;;;;;;5065822;28;11412;-77
2022/02/10 20:21:44;;;;;;;;;1.00;1.00;;;;;;;;5065399;28;11447;-76
2022/02/10 20:24:11;;;;;;;;;1.00;1.00;;;;;;;;5065708;28;12240;-77
2022/02/10 20:26:39;;;;;;;;;0.50;0.50;;;;;;;;5064523;28;11561;-77
2022/02/10 20:29:10;;;;;;;;;0.00;0.00;;;;;;;;5064259;28;11418;-77
2022/02/10 20:31:39;;;;;;;;;0.25;0.25;;;;;;;;5046033;28;11370;-77
2022/02/10 20:34:07;;;;;;;;;2.00;1.00;;;;;;;;5064169;28;11430;-77
2022/02/10 20:36:36;;;;;;;;;3.75;0.00;;;;;;;;5065332;28;11436;-77
2022/02/10 20:39:05;;;;;;;;;0.50;0.50;;;;;;;;5064878;28;11451;-77
2022/02/10 20:41:34;;;;;;;;;3.75;1.25;;;;;;;;5065837;28;11422;-77
2022/02/10 20:44:02;;;;;;;;;1.00;1.00;;;;;;;;5063074;28;11456;-77
2022/02/10 20:46:33;;;;;;;;;2.00;2.00;;;;;;;;5064647;28;11505;-77
2022/02/10 20:49:02;;;;;;;;;2.00;2.00;;;;;;;;5061480;28;11438;-78
2022/02/10 20:51:29;;;;;;;;;2.00;2.00;;;;;;;;5055220;28;12316;-78
2022/02/10 20:54:00;;;;;;;;;4.50;4.50;;;;;;;;5065285;28;11462;-77
2022/02/10 20:56:27;;;;;;;;;4.75;2.50;;;;;;;;5056703;28;11505;-78
2022/02/10 20:58:58;;;;;;;;;2.75;2.75;;;;;;;;5054495;28;11498;-78
2022/02/10 21:01:27;;;;;;;;;3.50;3.50;;;;;;;;5049064;28;11503;-77
2022/02/10 21:03:58;;;;;;;;;2.00;2.00;;;;;;;;5035968;28;11505;-77
2022/02/10 21:06:44;;;;;;;;;3.75;2.50;;;;;;;;5056516;28;12305;-78
2022/02/10 21:09:19;;;;;;;;;2.00;2.00;;;;;;;;5058906;28;11418;-78
2022/02/10 21:11:51;;;;;;;;;1.00;1.00;;;;;;;;5058315;28;11426;-78
2022/02/10 21:14:19;;;;;;;;;0.00;0.00;;;;;;;;5054230;28;11495;-77
2022/02/10 21:16:47;;;;;;;;;1.00;1.00;;;;;;;;5065852;28;11422;-77
2022/02/10 21:19:17;;;;;;;;;0.50;0.50;;;;;;;;5061099;28;11421;-78
2022/02/10 21:21:45;;;;;;;;;0.00;0.00;;;;;;;;5055970;28;11506;-77
2022/02/10 21:24:20;;;;;;;;;0.25;0.25;;;;;;;;5063263;28;11414;-77
2022/02/10 21:27:03;;;;;;;;;1.50;1.00;;;;;;;;5063081;28;11457;-77
2022/02/10 21:29:30;;;;;;;;;2.00;2.00;;;;;;;;5070548;28;11428;-77
2022/02/10 21:31:58;;;;;;;;;1.00;1.00;;;;;;;;5056865;28;11389;-77
2022/02/10 21:34:30;;;;;;;;;2.00;2.00;;;;;;;;5059174;28;11424;-77
2022/02/10 21:37:03;;;;;;;;;1.00;1.00;;;;;;;;5062653;28;11445;-77
2022/02/10 21:39:52;;;;;;;;;2.00;2.00;;;;;;;;5057093;28;11426;-77
2022/02/10 22:10:19;;;;;;;;;4.00;4.00;;;;;;;;5038132;28;11545;-77
2022/02/10 22:18:48;;;;;;;;;5.50;5.50;;;;;;;;5063651;28;11466;-77
2022/02/10 22:21:19;;;;;;;;;7.00;5.25;;;;;;;;5058782;28;11638;-77
2022/02/10 22:23:48;;;;;;;;;8.00;8.00;;;;;;;;5040822;28;12274;-77
2022/02/10 22:26:21;;;;;;;;;9.00;9.00;;;;;;;;5058056;28;11468;-77
2022/02/10 22:28:55;;;;;;;;;8.00;7.00;;;;;;;;5050750;28;11487;-77
2022/02/10 22:31:31;;;;;;;;;8.00;8.00;;;;;;;;5055883;28;11455;-76
2022/02/10 22:34:12;;;;;;;;;8.00;8.00;;;;;;;;5061198;28;11599;-77
2022/02/10 22:36:42;;;;;;;;;6.00;6.00;;;;;;;;5062402;28;11560;-77
2022/02/10 22:39:10;;;;;;;;;6.50;6.50;;;;;;;;5061620;28;11519;-77
2022/02/10 22:41:38;;;;;;;;;5.00;4.75;;;;;;;;5058100;28;12318;-78
2022/02/10 22:44:07;;;;;;;;;9.00;8.25;;;;;;;;5054128;28;11526;-77
2022/02/10 22:46:35;;;;;;;;;5.00;5.00;;;;;;;;5048821;28;11511;-78
2022/02/10 22:49:03;;;;;;;;;6.50;6.50;;;;;;;;5043245;28;11510;-78
2022/02/10 22:51:32;;;;;;;;;4.00;4.00;;;;;;;;5063962;28;12310;-77
2022/02/10 22:54:00;;;;;;;;;6.00;6.00;;;;;;;;5074607;28;11480;-77
2022/02/10 22:56:29;;;;;;;;;6.00;6.00;;;;;;;;5056667;28;11545;-77
2022/02/10 22:58:58;;;;;;;;;6.00;6.00;;;;;;;;5056661;28;11487;-77
2022/02/10 23:01:27;;;;;;;;;5.00;5.00;;;;;;;;5060403;28;11452;-77
2022/02/10 23:03:54;;;;;;;;;7.25;5.00;;;;;;;;5058492;28;12311;-77
2022/02/10 23:06:22;;;;;;;;;6.00;6.00;;;;;;;;5061287;28;11669;-77
2022/02/10 23:08:49;;;;;;;;;9.50;5.25;;;;;;;;5056946;28;11460;-77
2022/02/10 23:11:25;;;;;;;;;6.00;6.00;;;;;;;;5052085;28;11508;-77
2022/02/10 23:13:53;;;;;;;;;5.00;5.00;;;;;;;;5056554;28;11523;-77
2022/02/10 23:16:20;;;;;;;;;5.25;4.50;;;;;;;;5053883;28;11546;-78
2022/02/10 23:18:49;;;;;;;;;6.00;6.00;;;;;;;;5066801;28;12294;-78
2022/02/10 23:21:17;;;;;;;;;9.00;8.25;;;;;;;;5054601;28;11473;-78
2022/02/10 23:23:49;;;;;;;;;8.25;6.00;;;;;;;;5074343;28;11508;-77
2022/02/10 23:26:19;;;;;;;;;4.50;4.50;;;;;;;;5057199;28;11488;-78
2022/02/10 23:28:50;;;;;;;;;9.50;8.25;;;;;;;;5063524;28;11661;-77
2022/02/10 23:31:19;;;;;;;;;5.25;5.25;;;;;;;;5060014;28;11564;-77
2022/02/10 23:33:52;;;;;;;;;5.00;5.00;;;;;;;;5041687;28;11482;-77
2022/02/10 23:39:14;;;;;;;;;8.25;5.50;;;;;;;;5061706;28;11567;-77
2022/02/10 23:42:00;;;;;;;;;10.00;8.00;;;;;;;;5066153;28;12146;-77
2022/02/10 23:44:30;;;;;;;;;5.50;5.50;;;;;;;;5047388;28;11538;-77
2022/02/10 23:46:59;;;;;;;;;10.25;10.25;;;;;;;;5059338;28;11627;-77
2022/02/10 23:49:30;;;;;;;;;9.25;9.25;;;;;;;;5067738;28;11720;-78
2022/02/10 23:52:01;;;;;;;;;4.50;4.50;;;;;;;;5065209;28;11504;-78
2022/02/10 23:54:30;;;;;;;;;8.00;8.00;;;;;;;;5058663;28;11536;-78
2022/02/10 23:57:03;;;;;;;;;6.50;6.50;;;;;;;;5066144;28;11590;-78
2022/02/10 23:59:43;;;;;;;;;7.00;7.00;;;;;;;;5060879;28;11634;-78
